Main page
METAR-TAF:

METAR-TAF

Airports :

RAF Valley

Valley, Wales

latitude: 53-15N, longitude: 004-32W, elevation: 1 m

Current weather observation

The report was made 34 minutes ago, at 20:50 UTC
Wind 5 kt from the North/Northwest
Temperature 12°C
Humidity 88%
Pressure 1021 hPa
Visibility 10 km or more

METAR: EGOV 242050Z AUTO 34005KT 9999 FEW110/// 12/10 Q1021

Time: 22:24 (21:24 UTC)

Forecast

The report was made 7 hours and 38 minutes ago, at 13:46 UTC
Forecast valid from 24 at 15 UTC to 24 at 19 UTC
Wind 10 kt from the Northeast
Visibility 10 km or more
Few clouds at a height of 3000 ft

TAF: EGOV 241346Z 2415/2419 04010KT 9999 FEW030

Weather observations and forecasts of more than 4000 airports (METAR and TAF reports).

The available stations are represented by yellow and red dots on the map.

Hover mouse over dot to see the name of the station.

Then click to see weather observations and forecasts.

To change the map : click on the green buttons with a black cross to zoom in, on the green button with a dash to zoom out, or on the green arrows for adjacent maps.


METAR-TAF: